sensor_id;sensor_type;location;lat;lon;timestamp;pressure;altitude;pressure_sealevel;temperature;humidity
67517;BME280;68821;59.134;37.894;2023-11-21T00:00:21;100104.72;;;-6.90;69.16
67517;BME280;68821;59.134;37.894;2023-11-21T00:02:47;100091.38;;;-6.90;70.14
67517;BME280;68821;59.134;37.894;2023-11-21T00:05:14;100096.63;;;-6.87;69.21
67517;BME280;68821;59.134;37.894;2023-11-21T00:07:41;100090.22;;;-6.83;69.17
67517;BME280;68821;59.134;37.894;2023-11-21T00:10:09;100091.34;;;-6.80;70.36
67517;BME280;68821;59.134;37.894;2023-11-21T00:12:36;100090.63;;;-6.79;69.70
67517;BME280;68821;59.134;37.894;2023-11-21T00:15:03;100092.00;;;-6.82;69.61
67517;BME280;68821;59.134;37.894;2023-11-21T00:17:35;100088.38;;;-6.86;69.12
67517;BME280;68821;59.134;37.894;2023-11-21T00:20:01;100082.38;;;-6.88;69.50
67517;BME280;68821;59.134;37.894;2023-11-21T00:22:30;100083.88;;;-6.90;69.04
67517;BME280;68821;59.134;37.894;2023-11-21T00:24:56;100087.13;;;-6.91;69.35
67517;BME280;68821;59.134;37.894;2023-11-21T00:27:22;100066.75;;;-6.96;68.65
67517;BME280;68821;59.134;37.894;2023-11-21T00:29:48;100059.38;;;-6.94;69.73
67517;BME280;68821;59.134;37.894;2023-11-21T00:32:14;100075.00;;;-6.86;69.99
67517;BME280;68821;59.134;37.894;2023-11-21T00:34:41;100074.13;;;-6.87;69.06
67517;BME280;68821;59.134;37.894;2023-11-21T00:37:08;100078.00;;;-6.91;69.06
67517;BME280;68821;59.134;37.894;2023-11-21T00:39:34;100063.88;;;-6.90;68.74
67517;BME280;68821;59.134;37.894;2023-11-21T00:42:01;100069.50;;;-6.93;69.16
67517;BME280;68821;59.134;37.894;2023-11-21T00:44:27;100059.88;;;-6.98;68.44
67517;BME280;68821;59.134;37.894;2023-11-21T00:46:53;100066.75;;;-6.96;68.48
67517;BME280;68821;59.134;37.894;2023-11-21T00:49:20;100072.50;;;-6.97;68.85
67517;BME280;68821;59.134;37.894;2023-11-21T00:51:46;100071.00;;;-6.95;69.04
67517;BME280;68821;59.134;37.894;2023-11-21T00:54:13;100075.00;;;-6.97;68.67
67517;BME280;68821;59.134;37.894;2023-11-21T00:56:39;100068.75;;;-7.02;69.60
67517;BME280;68821;59.134;37.894;2023-11-21T00:59:06;100063.66;;;-7.03;68.77
67517;BME280;68821;59.134;37.894;2023-11-21T01:01:32;100055.91;;;-7.06;69.61
67517;BME280;68821;59.134;37.894;2023-11-21T01:03:59;100064.38;;;-7.04;69.77
67517;BME280;68821;59.134;37.894;2023-11-21T01:06:25;100063.41;;;-7.06;69.86
67517;BME280;68821;59.134;37.894;2023-11-21T01:08:51;100065.75;;;-7.08;69.59
67517;BME280;68821;59.134;37.894;2023-11-21T01:11:18;100065.53;;;-7.01;69.02
67517;BME280;68821;59.134;37.894;2023-11-21T01:13:44;100063.38;;;-6.96;69.57
67517;BME280;68821;59.134;37.894;2023-11-21T01:16:10;100064.75;;;-7.00;69.82
67517;BME280;68821;59.134;37.894;2023-11-21T01:18:37;100063.75;;;-7.02;69.17
67517;BME280;68821;59.134;37.894;2023-11-21T01:21:03;100059.41;;;-7.04;69.66
67517;BME280;68821;59.134;37.894;2023-11-21T01:23:30;100063.75;;;-7.02;69.46
67517;BME280;68821;59.134;37.894;2023-11-21T01:25:56;100056.16;;;-7.03;69.13
67517;BME280;68821;59.134;37.894;2023-11-21T01:28:23;100056.03;;;-7.05;69.10
67517;BME280;68821;59.134;37.894;2023-11-21T01:30:49;100048.78;;;-7.12;68.29
67517;BME280;68821;59.134;37.894;2023-11-21T01:33:15;100058.41;;;-7.06;68.74
67517;BME280;68821;59.134;37.894;2023-11-21T01:35:42;100052.91;;;-7.13;68.18
67517;BME280;68821;59.134;37.894;2023-11-21T01:38:08;100057.75;;;-7.14;69.30
67517;BME280;68821;59.134;37.894;2023-11-21T01:40:35;100060.53;;;-7.11;69.71
67517;BME280;68821;59.134;37.894;2023-11-21T01:43:01;100062.25;;;-7.10;68.75
67517;BME280;68821;59.134;37.894;2023-11-21T01:45:30;100054.66;;;-7.12;69.28
67517;BME280;68821;59.134;37.894;2023-11-21T01:48:00;100040.91;;;-7.17;68.37
67517;BME280;68821;59.134;37.894;2023-11-21T01:50:26;100055.16;;;-7.16;69.12
67517;BME280;68821;59.134;37.894;2023-11-21T01:52:54;100055.16;;;-7.16;68.42
67517;BME280;68821;59.134;37.894;2023-11-21T01:55:20;100054.28;;;-7.16;69.20
67517;BME280;68821;59.134;37.894;2023-11-21T01:57:46;100057.03;;;-7.13;69.04
67517;BME280;68821;59.134;37.894;2023-11-21T02:00:13;100053.53;;;-7.15;68.41
67517;BME280;68821;59.134;37.894;2023-11-21T02:02:44;100049.19;;;-7.18;67.79
67517;BME280;68821;59.134;37.894;2023-11-21T02:05:11;100053.03;;;-7.21;68.10
67517;BME280;68821;59.134;37.894;2023-11-21T02:07:41;100056.91;;;-7.25;68.86
67517;BME280;68821;59.134;37.894;2023-11-21T02:10:08;100066.53;;;-7.30;67.88
67517;BME280;68821;59.134;37.894;2023-11-21T02:12:35;100062.03;;;-7.34;68.63
67517;BME280;68821;59.134;37.894;2023-11-21T02:15:02;100059.66;;;-7.32;68.13
67517;BME280;68821;59.134;37.894;2023-11-21T02:17:31;100054.78;;;-7.31;68.39
67517;BME280;68821;59.134;37.894;2023-11-21T02:19:58;100055.03;;;-7.28;67.95
67517;BME280;68821;59.134;37.894;2023-11-21T02:22:27;100061.03;;;-7.25;67.68
67517;BME280;68821;59.134;37.894;2023-11-21T02:24:56;100059.75;;;-7.20;69.04
67517;BME280;68821;59.134;37.894;2023-11-21T02:27:23;100061.41;;;-7.21;68.33
67517;BME280;68821;59.134;37.894;2023-11-21T02:29:50;100057.41;;;-7.19;68.75
67517;BME280;68821;59.134;37.894;2023-11-21T02:32:16;100052.28;;;-7.20;67.96
67517;BME280;68821;59.134;37.894;2023-11-21T02:34:48;100049.91;;;-7.19;68.18
67517;BME280;68821;59.134;37.894;2023-11-21T02:37:15;100063.03;;;-7.11;68.94
67517;BME280;68821;59.134;37.894;2023-11-21T02:39:41;100060.75;;;-7.08;68.55
67517;BME280;68821;59.134;37.894;2023-11-21T02:42:07;100063.41;;;-7.06;68.21
67517;BME280;68821;59.134;37.894;2023-11-21T02:44:33;100061.91;;;-7.04;67.85
67517;BME280;68821;59.134;37.894;2023-11-21T02:47:00;100056.16;;;-7.03;67.62
67517;BME280;68821;59.134;37.894;2023-11-21T02:49:26;100065.53;;;-7.01;68.84
67517;BME280;68821;59.134;37.894;2023-11-21T02:51:55;100064.03;;;-6.99;68.78
67517;BME280;68821;59.134;37.894;2023-11-21T02:54:21;100054.16;;;-6.97;68.30
67517;BME280;68821;59.134;37.894;2023-11-21T02:56:49;100046.66;;;-6.97;68.06
67517;BME280;68821;59.134;37.894;2023-11-21T02:59:16;100044.91;;;-6.98;68.17
67517;BME280;68821;59.134;37.894;2023-11-21T03:01:42;100047.41;;;-6.98;68.15
67517;BME280;68821;59.134;37.894;2023-11-21T03:04:08;100049.75;;;-7.00;68.78
67517;BME280;68821;59.134;37.894;2023-11-21T03:06:34;100050.03;;;-6.97;68.20
67517;BME280;68821;59.134;37.894;2023-11-21T03:09:00;100037.19;;;-7.01;67.66
67517;BME280;68821;59.134;37.894;2023-11-21T03:11:26;100043.16;;;-6.99;69.11
67517;BME280;68821;59.134;37.894;2023-11-21T03:13:52;100035.41;;;-7.02;69.01
67517;BME280;68821;59.134;37.894;2023-11-21T03:16:18;100034.28;;;-7.06;67.69
67517;BME280;68821;59.134;37.894;2023-11-21T03:18:44;100047.66;;;-7.05;68.96
67517;BME280;68821;59.134;37.894;2023-11-21T03:21:11;100051.66;;;-7.07;68.91
67517;BME280;68821;59.134;37.894;2023-11-21T03:23:37;100040.19;;;-7.16;68.14
67517;BME280;68821;59.134;37.894;2023-11-21T03:26:03;100051.53;;;-7.09;69.03
67517;BME280;68821;59.134;37.894;2023-11-21T03:28:30;100046.53;;;-7.09;68.94
67517;BME280;68821;59.134;37.894;2023-11-21T03:30:56;100043.03;;;-7.11;68.16
67517;BME280;68821;59.134;37.894;2023-11-21T03:33:22;100049.66;;;-7.12;67.80
67517;BME280;68821;59.134;37.894;2023-11-21T03:35:48;100052.41;;;-7.09;68.22
67517;BME280;68821;59.134;37.894;2023-11-21T03:38:15;100050.03;;;-7.07;68.90
67517;BME280;68821;59.134;37.894;2023-11-21T03:40:42;100047.78;;;-7.04;68.46
67517;BME280;68821;59.134;37.894;2023-11-21T03:43:08;100042.78;;;-7.04;68.51
67517;BME280;68821;59.134;37.894;2023-11-21T03:45:34;100047.16;;;-7.01;68.33
67517;BME280;68821;59.134;37.894;2023-11-21T03:48:00;100045.53;;;-7.01;68.97
67517;BME280;68821;59.134;37.894;2023-11-21T03:50:30;100051.75;;;-6.96;67.86
67517;BME280;68821;59.134;37.894;2023-11-21T03:52:57;100037.53;;;-6.97;67.85
67517;BME280;68821;59.134;37.894;2023-11-21T03:55:23;100038.28;;;-6.98;68.33
67517;BME280;68821;59.134;37.894;2023-11-21T03:57:51;100041.66;;;-6.97;68.32
67517;BME280;68821;59.134;37.894;2023-11-21T04:00:17;100041.66;;;-6.97;68.75
67517;BME280;68821;59.134;37.894;2023-11-21T04:02:45;100048.25;;;-6.98;68.09
67517;BME280;68821;59.134;37.894;2023-11-21T04:05:11;100025.94;;;-7.06;68.62
67517;BME280;68821;59.134;37.894;2023-11-21T04:07:38;100049.03;;;-6.99;68.45
67517;BME280;68821;59.134;37.894;2023-11-21T04:10:05;100040.53;;;-7.01;68.52
67517;BME280;68821;59.134;37.894;2023-11-21T04:12:35;100047.03;;;-7.03;68.37
67517;BME280;68821;59.134;37.894;2023-11-21T04:15:01;100034.53;;;-7.03;69.05
67517;BME280;68821;59.134;37.894;2023-11-21T04:17:27;100035.53;;;-7.01;68.02
67517;BME280;68821;59.134;37.894;2023-11-21T04:19:53;100038.19;;;-6.99;68.32
67517;BME280;68821;59.134;37.894;2023-11-21T04:22:20;100033.28;;;-6.98;68.93
67517;BME280;68821;59.134;37.894;2023-11-21T04:24:45;100040.78;;;-6.98;67.91
67517;BME280;68821;59.134;37.894;2023-11-21T04:27:11;100033.03;;;-7.01;69.28
67517;BME280;68821;59.134;37.894;2023-11-21T04:29:38;100032.19;;;-7.01;68.40
67517;BME280;68821;59.134;37.894;2023-11-21T04:32:05;100022.28;;;-7.00;68.92
67517;BME280;68821;59.134;37.894;2023-11-21T04:34:31;100020.91;;;-6.96;68.15
67517;BME280;68821;59.134;37.894;2023-11-21T04:36:57;100025.28;;;-6.94;68.30
67517;BME280;68821;59.134;37.894;2023-11-21T04:39:23;100037.25;;;-6.90;68.79
67517;BME280;68821;59.134;37.894;2023-11-21T04:41:50;100042.16;;;-6.91;68.85
67517;BME280;68821;59.134;37.894;2023-11-21T04:44:16;100033.66;;;-6.93;67.78
67517;BME280;68821;59.134;37.894;2023-11-21T04:46:42;100025.28;;;-6.94;69.36
67517;BME280;68821;59.134;37.894;2023-11-21T04:49:09;100036.25;;;-6.92;67.95
67517;BME280;68821;59.134;37.894;2023-11-21T04:51:35;100033.91;;;-6.90;68.66
67517;BME280;68821;59.134;37.894;2023-11-21T04:54:01;100030.91;;;-6.86;68.92
67517;BME280;68821;59.134;37.894;2023-11-21T04:56:27;100031.53;;;-6.89;68.87
67517;BME280;68821;59.134;37.894;2023-11-21T04:58:54;100029.16;;;-6.87;68.96
67517;BME280;68821;59.134;37.894;2023-11-21T05:01:20;100035.25;;;-6.83;67.91
67517;BME280;68821;59.134;37.894;2023-11-21T05:03:46;100030.16;;;-6.85;68.24
67517;BME280;68821;59.134;37.894;2023-11-21T05:06:13;100032.66;;;-6.85;68.18
67517;BME280;68821;59.134;37.894;2023-11-21T05:08:40;100041.88;;;-6.84;68.94
67517;BME280;68821;59.134;37.894;2023-11-21T05:11:06;100037.88;;;-6.82;68.14
67517;BME280;68821;59.134;37.894;2023-11-21T05:13:36;100035.50;;;-6.80;68.70
67517;BME280;68821;59.134;37.894;2023-11-21T05:16:03;100030.38;;;-6.82;68.74
67517;BME280;68821;59.134;37.894;2023-11-21T05:18:32;100030.38;;;-6.82;69.30
67517;BME280;68821;59.134;37.894;2023-11-21T05:21:00;100038.66;;;-6.83;68.10
67517;BME280;68821;59.134;37.894;2023-11-21T05:23:26;100033.41;;;-6.86;68.69
67517;BME280;68821;59.134;37.894;2023-11-21T05:25:52;100027.41;;;-6.88;68.37
67517;BME280;68821;59.134;37.894;2023-11-21T05:28:18;100034.75;;;-6.90;68.35
67517;BME280;68821;59.134;37.894;2023-11-21T05:30:44;100037.41;;;-6.88;68.60
67517;BME280;68821;59.134;37.894;2023-11-21T05:33:10;100037.41;;;-6.88;69.20
67517;BME280;68821;59.134;37.894;2023-11-21T05:35:36;100048.66;;;-6.83;68.51
67517;BME280;68821;59.134;37.894;2023-11-21T05:38:02;100043.53;;;-6.84;68.40
67517;BME280;68821;59.134;37.894;2023-11-21T05:40:29;100042.88;;;-6.82;69.12
67517;BME280;68821;59.134;37.894;2023-11-21T05:42:55;100050.88;;;-6.76;68.80
67517;BME280;68821;59.134;37.894;2023-11-21T05:45:21;100055.00;;;-6.76;68.91
67517;BME280;68821;59.134;37.894;2023-11-21T05:47:47;100059.13;;;-6.77;68.41
67517;BME280;68821;59.134;37.894;2023-11-21T05:50:15;100057.63;;;-6.75;69.19
67517;BME280;68821;59.134;37.894;2023-11-21T05:52:42;100063.72;;;-6.71;68.44
67517;BME280;68821;59.134;37.894;2023-11-21T05:55:08;100060.50;;;-6.70;68.54
67517;BME280;68821;59.134;37.894;2023-11-21T05:57:38;100063.13;;;-6.69;69.35
67517;BME280;68821;59.134;37.894;2023-11-21T06:00:05;100069.22;;;-6.65;68.82
67517;BME280;68821;59.134;37.894;2023-11-21T06:02:39;100057.63;;;-6.64;69.44
67517;BME280;68821;59.134;37.894;2023-11-21T06:05:09;100058.34;;;-6.65;69.08
67517;BME280;68821;59.134;37.894;2023-11-21T06:07:38;100047.47;;;-6.66;68.24
67517;BME280;68821;59.134;37.894;2023-11-21T06:10:07;100055.13;;;-6.64;69.07
67517;BME280;68821;59.134;37.894;2023-11-21T06:12:34;100061.47;;;-6.58;68.57
67517;BME280;68821;59.134;37.894;2023-11-21T06:15:05;100066.94;;;-6.52;69.36
67517;BME280;68821;59.134;37.894;2023-11-21T06:17:33;100066.44;;;-6.48;67.96
67517;BME280;68821;59.134;37.894;2023-11-21T06:20:06;100064.06;;;-6.46;68.06
67517;BME280;68821;59.134;37.894;2023-11-21T06:22:38;100069.16;;;-6.44;68.81
67517;BME280;68821;59.134;37.894;2023-11-21T06:25:06;100074.56;;;-6.40;67.82
67517;BME280;68821;59.134;37.894;2023-11-21T06:27:34;100069.41;;;-6.41;68.91
67517;BME280;68821;59.134;37.894;2023-11-21T06:30:02;100077.16;;;-6.38;69.32
67517;BME280;68821;59.134;37.894;2023-11-21T06:32:28;100074.41;;;-6.31;69.10
67517;BME280;68821;59.134;37.894;2023-11-21T06:34:56;100073.00;;;-6.28;69.17
67517;BME280;68821;59.134;37.894;2023-11-21T06:37:26;100072.38;;;-6.25;69.16
67517;BME280;68821;59.134;37.894;2023-11-21T06:39:53;100075.75;;;-6.24;69.36
67517;BME280;68821;59.134;37.894;2023-11-21T06:42:19;100070.00;;;-6.23;68.44
67517;BME280;68821;59.134;37.894;2023-11-21T06:44:45;100077.00;;;-6.19;68.40
67517;BME280;68821;59.134;37.894;2023-11-21T06:47:11;100066.09;;;-6.20;69.21
67517;BME280;68821;59.134;37.894;2023-11-21T06:49:37;100073.84;;;-6.17;68.13
67517;BME280;68821;59.134;37.894;2023-11-21T06:52:06;100071.56;;;-6.14;68.17
67517;BME280;68821;59.134;37.894;2023-11-21T06:54:32;100071.69;;;-6.12;69.23
67517;BME280;68821;59.134;37.894;2023-11-21T06:56:58;100068.47;;;-6.11;68.73
67517;BME280;68821;59.134;37.894;2023-11-21T06:59:24;100069.31;;;-6.11;69.20
67517;BME280;68821;59.134;37.894;2023-11-21T07:01:50;100064.66;;;-6.06;68.79
67517;BME280;68821;59.134;37.894;2023-11-21T07:04:16;100068.03;;;-6.05;68.92
67517;BME280;68821;59.134;37.894;2023-11-21T07:06:43;100069.78;;;-6.04;68.95
67517;BME280;68821;59.134;37.894;2023-11-21T07:09:09;100071.44;;;-6.05;68.20
67517;BME280;68821;59.134;37.894;2023-11-21T07:11:37;100078.94;;;-6.05;68.07
67517;BME280;68821;59.134;37.894;2023-11-21T07:14:06;100078.81;;;-6.07;69.20
67517;BME280;68821;59.134;37.894;2023-11-21T07:16:34;100077.03;;;-6.08;68.78
67517;BME280;68821;59.134;37.894;2023-11-21T07:19:08;100074.78;;;-6.04;69.12
67517;BME280;68821;59.134;37.894;2023-11-21T07:21:35;100079.50;;;-5.97;69.03
67517;BME280;68821;59.134;37.894;2023-11-21T07:24:02;100082.34;;;-5.93;68.90
67517;BME280;68821;59.134;37.894;2023-11-21T07:26:29;100082.81;;;-5.87;69.38
67517;BME280;68821;59.134;37.894;2023-11-21T07:28:55;100080.31;;;-5.87;68.53
67517;BME280;68821;59.134;37.894;2023-11-21T07:31:22;100064.84;;;-5.93;68.29
67517;BME280;68821;59.134;37.894;2023-11-21T07:33:48;100074.94;;;-5.91;68.47
67517;BME280;68821;59.134;37.894;2023-11-21T07:36:15;100082.06;;;-5.86;68.53
67517;BME280;68821;59.134;37.894;2023-11-21T07:38:42;100084.81;;;-5.82;69.23
67517;BME280;68821;59.134;37.894;2023-11-21T07:41:08;100076.41;;;-5.83;68.78
67517;BME280;68821;59.134;37.894;2023-11-21T07:43:35;100082.78;;;-5.76;69.32
67517;BME280;68821;59.134;37.894;2023-11-21T07:46:02;100090.91;;;-5.79;69.13
67517;BME280;68821;59.134;37.894;2023-11-21T07:48:30;100088.81;;;-5.84;68.34
67517;BME280;68821;59.134;37.894;2023-11-21T07:50:57;100083.56;;;-5.88;68.07
67517;BME280;68821;59.134;37.894;2023-11-21T07:53:24;100087.94;;;-5.85;68.39
67517;BME280;68821;59.134;37.894;2023-11-21T07:55:57;100087.94;;;-5.85;68.71
67517;BME280;68821;59.134;37.894;2023-11-21T07:58:24;100089.56;;;-5.86;68.10
67517;BME280;68821;59.134;37.894;2023-11-21T08:00:50;100087.19;;;-5.84;69.49
67517;BME280;68821;59.134;37.894;2023-11-21T08:03:16;100101.22;;;-5.86;69.00
67517;BME280;68821;59.134;37.894;2023-11-21T08:05:43;100100.69;;;-5.82;69.59
67517;BME280;68821;59.134;37.894;2023-11-21T08:08:08;100092.53;;;-5.79;69.32
67517;BME280;68821;59.134;37.894;2023-11-21T08:10:34;100093.91;;;-5.83;68.81
67517;BME280;68821;59.134;37.894;2023-11-21T08:13:02;100096.72;;;-5.90;69.32
67517;BME280;68821;59.134;37.894;2023-11-21T08:15:29;100090.41;;;-5.97;68.64
67517;BME280;68821;59.134;37.894;2023-11-21T08:17:58;100078.94;;;-6.05;69.17
67517;BME280;68821;59.134;37.894;2023-11-21T08:20:27;100083.03;;;-6.05;69.50
67517;BME280;68821;59.134;37.894;2023-11-21T08:22:54;100078.56;;;-6.10;69.00
67517;BME280;68821;59.134;37.894;2023-11-21T08:25:22;100089.81;;;-6.04;69.26
67517;BME280;68821;59.134;37.894;2023-11-21T08:27:48;100092.19;;;-6.06;69.16
67517;BME280;68821;59.134;37.894;2023-11-21T08:30:15;100091.53;;;-6.03;69.80
67517;BME280;68821;59.134;37.894;2023-11-21T08:32:42;100083.28;;;-6.02;68.67
67517;BME280;68821;59.134;37.894;2023-11-21T08:35:08;100084.28;;;-6.00;69.08
67517;BME280;68821;59.134;37.894;2023-11-21T08:37:35;100082.66;;;-6.00;69.55
67517;BME280;68821;59.134;37.894;2023-11-21T08:40:05;100079.28;;;-6.00;69.58
67517;BME280;68821;59.134;37.894;2023-11-21T08:42:35;100079.31;;;-6.11;68.60
67517;BME280;68821;59.134;37.894;2023-11-21T08:45:01;100084.38;;;-6.21;68.86
67517;BME280;68821;59.134;37.894;2023-11-21T08:47:27;100092.38;;;-6.25;68.48
67517;BME280;68821;59.134;37.894;2023-11-21T08:49:53;100083.91;;;-6.37;68.83
67517;BME280;68821;59.134;37.894;2023-11-21T08:52:19;100087.81;;;-6.51;68.61
67517;BME280;68821;59.134;37.894;2023-11-21T08:54:49;100078.84;;;-6.59;67.53
67517;BME280;68821;59.134;37.894;2023-11-21T08:57:24;100080.34;;;-6.61;67.89
67517;BME280;68821;59.134;37.894;2023-11-21T08:59:50;100075.47;;;-6.60;68.67
67517;BME280;68821;59.134;37.894;2023-11-21T09:02:21;100073.97;;;-6.58;67.76
67517;BME280;68821;59.134;37.894;2023-11-21T09:04:50;100083.31;;;-6.55;68.68
67517;BME280;68821;59.134;37.894;2023-11-21T09:07:19;100092.81;;;-6.51;68.72
67517;BME280;68821;59.134;37.894;2023-11-21T09:09:47;100089.97;;;-6.56;67.49
67517;BME280;68821;59.134;37.894;2023-11-21T09:12:13;100094.97;;;-6.66;67.34
67517;BME280;68821;59.134;37.894;2023-11-21T09:14:39;100093.72;;;-6.71;67.74
67517;BME280;68821;59.134;37.894;2023-11-21T09:17:05;100078.22;;;-6.67;68.05
67517;BME280;68821;59.134;37.894;2023-11-21T09:19:40;100087.59;;;-6.54;68.31
67517;BME280;68821;59.134;37.894;2023-11-21T09:22:06;100089.94;;;-6.45;67.63
67517;BME280;68821;59.134;37.894;2023-11-21T09:24:32;100075.41;;;-6.39;68.62
67517;BME280;68821;59.134;37.894;2023-11-21T09:26:59;100080.25;;;-6.31;68.49
67517;BME280;68821;59.134;37.894;2023-11-21T09:29:26;100079.50;;;-6.19;68.67
67517;BME280;68821;59.134;37.894;2023-11-21T09:31:52;100079.53;;;-6.08;67.52
67517;BME280;68821;59.134;37.894;2023-11-21T09:34:21;100069.53;;;-6.08;67.78
67517;BME280;68821;59.134;37.894;2023-11-21T09:36:47;100077.00;;;-5.97;67.53
67517;BME280;68821;59.134;37.894;2023-11-21T09:39:14;100078.09;;;-5.94;67.73
67517;BME280;68821;59.134;37.894;2023-11-21T09:41:49;100074.41;;;-5.87;68.32
67517;BME280;68821;59.134;37.894;2023-11-21T09:44:18;100080.78;;;-5.80;67.10
67517;BME280;68821;59.134;37.894;2023-11-21T09:46:48;100081.19;;;-5.86;67.26
67517;BME280;68821;59.134;37.894;2023-11-21T09:49:18;100085.69;;;-5.82;67.57
67517;BME280;68821;59.134;37.894;2023-11-21T09:51:53;100091.03;;;-5.77;67.15
67517;BME280;68821;59.134;37.894;2023-11-21T09:54:21;100090.03;;;-5.79;67.06
67517;BME280;68821;59.134;37.894;2023-11-21T09:56:48;100086.94;;;-5.87;67.64
67517;BME280;68821;59.134;37.894;2023-11-21T09:59:16;100094.75;;;-5.94;67.11
67517;BME280;68821;59.134;37.894;2023-11-21T10:01:42;100086.53;;;-6.03;67.16
67517;BME280;68821;59.134;37.894;2023-11-21T10:04:09;100087.94;;;-6.07;67.66
67517;BME280;68821;59.134;37.894;2023-11-21T10:06:39;100102.19;;;-6.06;67.36
67517;BME280;68821;59.134;37.894;2023-11-21T10:09:10;100089.81;;;-6.04;67.50
67517;BME280;68821;59.134;37.894;2023-11-21T10:11:43;100087.13;;;-5.96;67.05
67517;BME280;68821;59.134;37.894;2023-11-21T10:14:11;100102.59;;;-5.90;67.71
67517;BME280;68821;59.134;37.894;2023-11-21T10:16:41;100097.78;;;-5.98;67.04
67517;BME280;68821;59.134;37.894;2023-11-21T10:19:10;100110.09;;;-6.12;66.70
67517;BME280;68821;59.134;37.894;2023-11-21T10:21:39;100104.25;;;-6.22;66.21
67517;BME280;68821;59.134;37.894;2023-11-21T10:24:06;100116.28;;;-6.29;66.75
67517;BME280;68821;59.134;37.894;2023-11-21T10:26:33;100114.78;;;-6.37;66.56
67517;BME280;68821;59.134;37.894;2023-11-21T10:29:01;100115.31;;;-6.41;67.27
67517;BME280;68821;59.134;37.894;2023-11-21T10:31:32;100123.94;;;-6.48;67.15
67517;BME280;68821;59.134;37.894;2023-11-21T10:34:19;100124.19;;;-6.44;67.08
67517;BME280;68821;59.134;37.894;2023-11-21T10:36:46;100128.66;;;-6.40;66.71
67517;BME280;68821;59.134;37.894;2023-11-21T10:39:21;100128.66;;;-6.40;67.38
67517;BME280;68821;59.134;37.894;2023-11-21T10:41:49;100130.44;;;-6.39;66.51
67517;BME280;68821;59.134;37.894;2023-11-21T10:44:17;100124.56;;;-6.40;67.13
67517;BME280;68821;59.134;37.894;2023-11-21T10:46:49;100125.16;;;-6.32;67.09
67517;BME280;68821;59.134;37.894;2023-11-21T10:49:20;100126.53;;;-6.25;66.30
67517;BME280;68821;59.134;37.894;2023-11-21T10:51:46;100131.75;;;-6.22;66.06
67517;BME280;68821;59.134;37.894;2023-11-21T10:54:20;100122.78;;;-6.31;66.77
67517;BME280;68821;59.134;37.894;2023-11-21T10:56:53;100123.41;;;-6.33;67.12
67517;BME280;68821;59.134;37.894;2023-11-21T10:59:22;100125.16;;;-6.32;66.13
67517;BME280;68821;59.134;37.894;2023-11-21T11:01:51;100138.91;;;-6.27;67.12
67517;BME280;68821;59.134;37.894;2023-11-21T11:04:19;100131.63;;;-6.24;66.93
67517;BME280;68821;59.134;37.894;2023-11-21T11:06:53;100136.78;;;-6.22;66.66
67517;BME280;68821;59.134;37.894;2023-11-21T11:09:20;100126.75;;;-6.22;67.00
67517;BME280;68821;59.134;37.894;2023-11-21T11:11:46;100130.50;;;-6.17;67.25
67517;BME280;68821;59.134;37.894;2023-11-21T11:14:13;100135.09;;;-6.12;66.51
67517;BME280;68821;59.134;37.894;2023-11-21T11:16:41;100129.84;;;-6.04;66.69
67517;BME280;68821;59.134;37.894;2023-11-21T11:19:09;100125.84;;;-6.02;66.50
67517;BME280;68821;59.134;37.894;2023-11-21T11:24:41;100132.59;;;-6.12;66.02
67517;BME280;68821;59.134;37.894;2023-11-21T11:27:20;100123.63;;;-6.20;66.22
67517;BME280;68821;59.134;37.894;2023-11-21T11:38:33;100126.66;;;-6.34;66.88
67517;BME280;68821;59.134;37.894;2023-11-21T11:41:05;100132.94;;;-6.39;66.91
67517;BME280;68821;59.134;37.894;2023-11-21T11:43:32;100135.94;;;-6.43;66.05
67517;BME280;68821;59.134;37.894;2023-11-21T11:46:03;100132.81;;;-6.51;66.00
67517;BME280;68821;59.134;37.894;2023-11-21T11:48:29;100124.09;;;-6.56;66.78
67517;BME280;68821;59.134;37.894;2023-11-21T11:51:13;100132.19;;;-6.59;65.81
67517;BME280;68821;59.134;37.894;2023-11-21T11:53:46;100128.97;;;-6.68;66.07
67517;BME280;68821;59.134;37.894;2023-11-21T11:56:20;100136.72;;;-6.75;65.50
67517;BME280;68821;59.134;37.894;2023-11-21T11:58:49;100133.47;;;-6.84;66.79
67517;BME280;68821;59.134;37.894;2023-11-21T12:01:19;100131.34;;;-6.90;65.95
67517;BME280;68821;59.134;37.894;2023-11-21T12:06:43;100126.72;;;-6.96;66.26
67517;BME280;68821;59.134;37.894;2023-11-21T12:09:18;100127.97;;;-7.01;66.28
67517;BME280;68821;59.134;37.894;2023-11-21T12:11:46;100127.47;;;-7.07;66.40
67517;BME280;68821;59.134;37.894;2023-11-21T12:14:13;100140.47;;;-7.01;67.55
67517;BME280;68821;59.134;37.894;2023-11-21T12:16:40;100138.97;;;-6.99;67.09
67517;BME280;68821;59.134;37.894;2023-11-21T12:19:06;100145.19;;;-6.94;66.94
67517;BME280;68821;59.134;37.894;2023-11-21T12:21:32;100134.97;;;-6.97;66.49
67517;BME280;68821;59.134;37.894;2023-11-21T12:23:58;100141.34;;;-6.90;67.45
67517;BME280;68821;59.134;37.894;2023-11-21T12:26:24;100152.84;;;-6.92;66.92
67517;BME280;68821;59.134;37.894;2023-11-21T12:28:54;100149.69;;;-6.90;67.13
67517;BME280;68821;59.134;37.894;2023-11-21T12:31:23;100150.47;;;-6.91;66.52
67517;BME280;68821;59.134;37.894;2023-11-21T12:33:49;100152.09;;;-6.91;66.38
67517;BME280;68821;59.134;37.894;2023-11-21T12:36:16;100156.84;;;-6.94;66.21
67517;BME280;68821;59.134;37.894;2023-11-21T12:38:43;100161.31;;;-7.00;65.99
67517;BME280;68821;59.134;37.894;2023-11-21T12:41:12;100155.94;;;-7.05;66.18
67517;BME280;68821;59.134;37.894;2023-11-21T12:43:38;100151.81;;;-7.04;67.38
67517;BME280;68821;59.134;37.894;2023-11-21T12:46:10;100146.47;;;-7.09;66.17
67517;BME280;68821;59.134;37.894;2023-11-21T12:48:43;100156.44;;;-7.09;67.78
67517;BME280;68821;59.134;37.894;2023-11-21T12:51:11;100153.81;;;-7.11;66.98
67517;BME280;68821;59.134;37.894;2023-11-21T12:53:38;100162.19;;;-7.10;67.01
67517;BME280;68821;59.134;37.894;2023-11-21T12:56:10;100158.09;;;-7.10;67.56